sensor_id;sensor_type;location;lat;lon;timestamp;P1;durP1;ratioP1;P2;durP2;ratioP2
17308;SDS011;8772;42.804;23.426;2022-08-23T00:00:49;7.97;;;4.63;;
17308;SDS011;8772;42.804;23.426;2022-08-23T00:03:16;7.63;;;4.07;;
17308;SDS011;8772;42.804;23.426;2022-08-23T00:05:43;7.67;;;3.80;;
17308;SDS011;8772;42.804;23.426;2022-08-23T00:08:10;11.83;;;5.47;;
17308;SDS011;8772;42.804;23.426;2022-08-23T00:10:37;11.50;;;5.43;;
17308;SDS011;8772;42.804;23.426;2022-08-23T00:13:04;7.60;;;3.87;;
17308;SDS011;8772;42.804;23.426;2022-08-23T00:15:31;6.37;;;4.07;;
17308;SDS011;8772;42.804;23.426;2022-08-23T00:18:00;13.33;;;5.73;;
17308;SDS011;8772;42.804;23.426;2022-08-23T00:20:27;11.73;;;4.80;;
17308;SDS011;8772;42.804;23.426;2022-08-23T00:22:54;8.60;;;4.10;;
17308;SDS011;8772;42.804;23.426;2022-08-23T00:25:22;14.50;;;5.83;;
17308;SDS011;8772;42.804;23.426;2022-08-23T00:27:49;10.47;;;4.93;;
17308;SDS011;8772;42.804;23.426;2022-08-23T00:30:16;10.40;;;5.23;;
17308;SDS011;8772;42.804;23.426;2022-08-23T00:32:43;7.57;;;4.57;;
17308;SDS011;8772;42.804;23.426;2022-08-23T00:35:12;9.10;;;4.53;;
17308;SDS011;8772;42.804;23.426;2022-08-23T00:37:40;9.83;;;4.67;;
17308;SDS011;8772;42.804;23.426;2022-08-23T00:40:09;6.07;;;3.37;;
17308;SDS011;8772;42.804;23.426;2022-08-23T00:42:38;7.47;;;3.33;;
17308;SDS011;8772;42.804;23.426;2022-08-23T00:45:41;8.33;;;4.60;;
17308;SDS011;8772;42.804;23.426;2022-08-23T00:48:34;9.73;;;3.93;;
17308;SDS011;8772;42.804;23.426;2022-08-23T00:51:07;8.13;;;3.80;;
17308;SDS011;8772;42.804;23.426;2022-08-23T00:53:40;5.83;;;3.07;;
17308;SDS011;8772;42.804;23.426;2022-08-23T00:56:12;7.47;;;4.10;;
17308;SDS011;8772;42.804;23.426;2022-08-23T00:58:42;8.20;;;3.10;;
17308;SDS011;8772;42.804;23.426;2022-08-23T01:01:10;8.23;;;4.10;;
17308;SDS011;8772;42.804;23.426;2022-08-23T01:03:39;6.47;;;3.93;;
17308;SDS011;8772;42.804;23.426;2022-08-23T01:09:04;6.60;;;3.03;;
17308;SDS011;8772;42.804;23.426;2022-08-23T01:11:36;5.40;;;3.20;;
17308;SDS011;8772;42.804;23.426;2022-08-23T01:14:09;6.17;;;3.63;;
17308;SDS011;8772;42.804;23.426;2022-08-23T01:16:40;6.80;;;3.17;;
17308;SDS011;8772;42.804;23.426;2022-08-23T01:19:13;5.20;;;2.90;;
17308;SDS011;8772;42.804;23.426;2022-08-23T01:21:48;5.83;;;3.70;;
17308;SDS011;8772;42.804;23.426;2022-08-23T01:24:24;4.77;;;2.77;;
17308;SDS011;8772;42.804;23.426;2022-08-23T01:26:52;5.77;;;2.73;;
17308;SDS011;8772;42.804;23.426;2022-08-23T01:29:20;4.17;;;2.67;;
17308;SDS011;8772;42.804;23.426;2022-08-23T01:31:48;6.90;;;3.17;;
17308;SDS011;8772;42.804;23.426;2022-08-23T01:34:15;5.17;;;2.90;;
17308;SDS011;8772;42.804;23.426;2022-08-23T01:36:42;6.67;;;2.80;;
17308;SDS011;8772;42.804;23.426;2022-08-23T01:39:10;6.03;;;3.17;;
17308;SDS011;8772;42.804;23.426;2022-08-23T01:41:40;6.10;;;2.77;;
17308;SDS011;8772;42.804;23.426;2022-08-23T01:44:07;12.30;;;4.70;;
17308;SDS011;8772;42.804;23.426;2022-08-23T01:46:34;7.47;;;3.80;;
17308;SDS011;8772;42.804;23.426;2022-08-23T01:49:02;5.77;;;3.03;;
17308;SDS011;8772;42.804;23.426;2022-08-23T01:51:30;6.57;;;3.97;;
17308;SDS011;8772;42.804;23.426;2022-08-23T01:53:57;7.23;;;3.20;;
17308;SDS011;8772;42.804;23.426;2022-08-23T01:56:24;5.50;;;3.20;;
17308;SDS011;8772;42.804;23.426;2022-08-23T01:58:53;4.87;;;3.07;;
17308;SDS011;8772;42.804;23.426;2022-08-23T02:01:20;7.27;;;3.90;;
17308;SDS011;8772;42.804;23.426;2022-08-23T02:03:47;4.37;;;2.40;;
17308;SDS011;8772;42.804;23.426;2022-08-23T02:06:14;5.30;;;3.47;;
17308;SDS011;8772;42.804;23.426;2022-08-23T02:08:41;7.60;;;3.70;;
17308;SDS011;8772;42.804;23.426;2022-08-23T02:11:26;3.20;;;2.03;;
17308;SDS011;8772;42.804;23.426;2022-08-23T02:13:58;5.97;;;2.83;;
17308;SDS011;8772;42.804;23.426;2022-08-23T02:16:27;4.33;;;3.00;;
17308;SDS011;8772;42.804;23.426;2022-08-23T02:18:58;3.23;;;2.20;;
17308;SDS011;8772;42.804;23.426;2022-08-23T02:21:26;5.03;;;3.13;;
17308;SDS011;8772;42.804;23.426;2022-08-23T02:23:55;4.90;;;3.13;;
17308;SDS011;8772;42.804;23.426;2022-08-23T02:26:23;3.73;;;2.73;;
17308;SDS011;8772;42.804;23.426;2022-08-23T02:28:50;4.90;;;2.97;;
17308;SDS011;8772;42.804;23.426;2022-08-23T02:31:20;4.40;;;2.40;;
17308;SDS011;8772;42.804;23.426;2022-08-23T02:33:47;6.10;;;3.63;;
17308;SDS011;8772;42.804;23.426;2022-08-23T02:36:14;5.73;;;3.40;;
17308;SDS011;8772;42.804;23.426;2022-08-23T02:38:41;3.17;;;2.23;;
17308;SDS011;8772;42.804;23.426;2022-08-23T02:41:09;3.97;;;2.30;;
17308;SDS011;8772;42.804;23.426;2022-08-23T02:43:36;3.10;;;2.50;;
17308;SDS011;8772;42.804;23.426;2022-08-23T02:46:03;7.33;;;2.70;;
17308;SDS011;8772;42.804;23.426;2022-08-23T02:48:32;7.77;;;2.80;;
17308;SDS011;8772;42.804;23.426;2022-08-23T02:51:00;6.87;;;2.73;;
17308;SDS011;8772;42.804;23.426;2022-08-23T02:53:29;3.73;;;2.57;;
17308;SDS011;8772;42.804;23.426;2022-08-23T02:55:57;4.93;;;2.60;;
17308;SDS011;8772;42.804;23.426;2022-08-23T02:58:25;4.10;;;2.77;;
17308;SDS011;8772;42.804;23.426;2022-08-23T03:00:53;3.47;;;2.63;;
17308;SDS011;8772;42.804;23.426;2022-08-23T03:03:20;3.57;;;2.30;;
17308;SDS011;8772;42.804;23.426;2022-08-23T03:05:49;3.50;;;1.80;;
17308;SDS011;8772;42.804;23.426;2022-08-23T03:08:18;4.80;;;2.70;;
17308;SDS011;8772;42.804;23.426;2022-08-23T03:10:46;4.13;;;2.00;;
17308;SDS011;8772;42.804;23.426;2022-08-23T03:13:15;3.70;;;2.00;;
17308;SDS011;8772;42.804;23.426;2022-08-23T03:15:43;5.13;;;3.20;;
17308;SDS011;8772;42.804;23.426;2022-08-23T03:18:10;3.33;;;2.17;;
17308;SDS011;8772;42.804;23.426;2022-08-23T03:20:37;5.03;;;3.07;;
17308;SDS011;8772;42.804;23.426;2022-08-23T03:23:07;4.97;;;2.67;;
17308;SDS011;8772;42.804;23.426;2022-08-23T03:25:34;3.33;;;2.33;;
17308;SDS011;8772;42.804;23.426;2022-08-23T03:28:02;3.20;;;2.37;;
17308;SDS011;8772;42.804;23.426;2022-08-23T03:30:30;6.53;;;3.13;;
17308;SDS011;8772;42.804;23.426;2022-08-23T03:32:58;4.97;;;1.90;;
17308;SDS011;8772;42.804;23.426;2022-08-23T03:35:26;3.67;;;2.43;;
17308;SDS011;8772;42.804;23.426;2022-08-23T03:37:53;12.00;;;2.37;;
17308;SDS011;8772;42.804;23.426;2022-08-23T03:40:21;4.87;;;2.00;;
17308;SDS011;8772;42.804;23.426;2022-08-23T03:42:48;3.00;;;1.80;;
17308;SDS011;8772;42.804;23.426;2022-08-23T03:45:16;2.40;;;2.00;;
17308;SDS011;8772;42.804;23.426;2022-08-23T03:47:43;3.40;;;2.37;;
17308;SDS011;8772;42.804;23.426;2022-08-23T03:50:10;3.17;;;1.77;;
17308;SDS011;8772;42.804;23.426;2022-08-23T03:52:37;4.40;;;2.00;;
17308;SDS011;8772;42.804;23.426;2022-08-23T03:55:04;4.37;;;2.07;;
17308;SDS011;8772;42.804;23.426;2022-08-23T03:57:33;1.90;;;1.50;;
17308;SDS011;8772;42.804;23.426;2022-08-23T04:00:00;3.57;;;2.03;;
17308;SDS011;8772;42.804;23.426;2022-08-23T04:02:27;2.43;;;1.50;;
17308;SDS011;8772;42.804;23.426;2022-08-23T04:04:54;4.03;;;1.77;;
17308;SDS011;8772;42.804;23.426;2022-08-23T04:07:22;2.30;;;1.87;;
17308;SDS011;8772;42.804;23.426;2022-08-23T04:09:49;4.70;;;2.33;;
17308;SDS011;8772;42.804;23.426;2022-08-23T04:12:16;1.90;;;1.40;;
17308;SDS011;8772;42.804;23.426;2022-08-23T04:14:45;2.93;;;1.60;;
17308;SDS011;8772;42.804;23.426;2022-08-23T04:17:12;2.27;;;1.57;;
17308;SDS011;8772;42.804;23.426;2022-08-23T04:19:40;3.03;;;1.90;;
17308;SDS011;8772;42.804;23.426;2022-08-23T04:22:10;4.03;;;2.27;;
17308;SDS011;8772;42.804;23.426;2022-08-23T04:24:37;2.83;;;1.70;;
17308;SDS011;8772;42.804;23.426;2022-08-23T04:27:05;2.83;;;1.57;;
17308;SDS011;8772;42.804;23.426;2022-08-23T04:29:32;3.40;;;1.73;;
17308;SDS011;8772;42.804;23.426;2022-08-23T04:32:01;2.70;;;1.53;;
17308;SDS011;8772;42.804;23.426;2022-08-23T04:34:29;2.90;;;1.60;;
17308;SDS011;8772;42.804;23.426;2022-08-23T04:36:56;2.73;;;1.70;;
17308;SDS011;8772;42.804;23.426;2022-08-23T04:39:23;4.67;;;1.73;;
17308;SDS011;8772;42.804;23.426;2022-08-23T04:41:51;2.07;;;1.53;;
17308;SDS011;8772;42.804;23.426;2022-08-23T04:44:35;2.77;;;1.83;;
17308;SDS011;8772;42.804;23.426;2022-08-23T04:47:04;2.73;;;1.60;;
17308;SDS011;8772;42.804;23.426;2022-08-23T04:49:31;4.93;;;1.87;;
17308;SDS011;8772;42.804;23.426;2022-08-23T04:51:58;2.40;;;1.30;;
17308;SDS011;8772;42.804;23.426;2022-08-23T04:54:25;2.40;;;1.70;;
17308;SDS011;8772;42.804;23.426;2022-08-23T04:56:53;3.80;;;1.77;;
17308;SDS011;8772;42.804;23.426;2022-08-23T04:59:20;1.97;;;1.50;;
17308;SDS011;8772;42.804;23.426;2022-08-23T05:01:48;3.07;;;1.60;;
17308;SDS011;8772;42.804;23.426;2022-08-23T05:04:16;2.07;;;1.60;;
17308;SDS011;8772;42.804;23.426;2022-08-23T05:06:44;2.30;;;1.57;;
17308;SDS011;8772;42.804;23.426;2022-08-23T05:09:11;1.60;;;1.50;;
17308;SDS011;8772;42.804;23.426;2022-08-23T05:11:38;3.17;;;1.60;;
17308;SDS011;8772;42.804;23.426;2022-08-23T05:14:05;3.70;;;1.67;;
17308;SDS011;8772;42.804;23.426;2022-08-23T05:16:32;4.10;;;1.90;;
17308;SDS011;8772;42.804;23.426;2022-08-23T05:18:59;2.77;;;1.77;;
17308;SDS011;8772;42.804;23.426;2022-08-23T05:21:28;4.57;;;1.93;;
17308;SDS011;8772;42.804;23.426;2022-08-23T05:23:55;2.93;;;1.80;;
17308;SDS011;8772;42.804;23.426;2022-08-23T05:26:22;2.77;;;1.87;;
17308;SDS011;8772;42.804;23.426;2022-08-23T05:28:49;2.87;;;1.53;;
17308;SDS011;8772;42.804;23.426;2022-08-23T05:31:17;4.17;;;2.53;;
17308;SDS011;8772;42.804;23.426;2022-08-23T05:33:46;2.33;;;1.63;;
17308;SDS011;8772;42.804;23.426;2022-08-23T05:36:13;5.17;;;2.30;;
17308;SDS011;8772;42.804;23.426;2022-08-23T05:38:44;1.80;;;1.30;;
17308;SDS011;8772;42.804;23.426;2022-08-23T05:41:12;2.93;;;1.83;;
17308;SDS011;8772;42.804;23.426;2022-08-23T05:43:39;3.13;;;1.70;;
17308;SDS011;8772;42.804;23.426;2022-08-23T05:46:07;4.23;;;2.30;;
17308;SDS011;8772;42.804;23.426;2022-08-23T05:48:36;5.10;;;2.70;;
17308;SDS011;8772;42.804;23.426;2022-08-23T05:51:08;4.57;;;2.47;;
17308;SDS011;8772;42.804;23.426;2022-08-23T05:53:36;4.83;;;2.30;;
17308;SDS011;8772;42.804;23.426;2022-08-23T05:56:09;3.87;;;2.63;;
17308;SDS011;8772;42.804;23.426;2022-08-23T05:58:37;6.20;;;2.53;;
17308;SDS011;8772;42.804;23.426;2022-08-23T06:01:04;3.57;;;2.37;;
17308;SDS011;8772;42.804;23.426;2022-08-23T06:03:31;4.57;;;2.00;;
17308;SDS011;8772;42.804;23.426;2022-08-23T06:05:59;4.97;;;2.50;;
17308;SDS011;8772;42.804;23.426;2022-08-23T06:08:26;3.47;;;2.13;;
17308;SDS011;8772;42.804;23.426;2022-08-23T06:10:58;4.87;;;2.47;;
17308;SDS011;8772;42.804;23.426;2022-08-23T06:13:27;4.87;;;2.70;;
17308;SDS011;8772;42.804;23.426;2022-08-23T06:15:55;9.33;;;3.50;;
17308;SDS011;8772;42.804;23.426;2022-08-23T06:18:22;5.03;;;2.90;;
17308;SDS011;8772;42.804;23.426;2022-08-23T06:20:57;4.73;;;2.70;;
17308;SDS011;8772;42.804;23.426;2022-08-23T06:23:26;4.63;;;2.80;;
17308;SDS011;8772;42.804;23.426;2022-08-23T06:25:53;4.23;;;2.27;;
17308;SDS011;8772;42.804;23.426;2022-08-23T06:28:20;5.67;;;2.53;;
17308;SDS011;8772;42.804;23.426;2022-08-23T06:30:51;6.67;;;2.30;;
17308;SDS011;8772;42.804;23.426;2022-08-23T06:33:21;4.80;;;2.13;;
17308;SDS011;8772;42.804;23.426;2022-08-23T06:35:48;5.30;;;2.40;;
17308;SDS011;8772;42.804;23.426;2022-08-23T06:38:16;4.10;;;2.47;;
17308;SDS011;8772;42.804;23.426;2022-08-23T06:40:43;5.43;;;2.73;;
17308;SDS011;8772;42.804;23.426;2022-08-23T06:43:10;2.87;;;1.80;;
17308;SDS011;8772;42.804;23.426;2022-08-23T06:45:37;7.43;;;2.43;;
17308;SDS011;8772;42.804;23.426;2022-08-23T06:48:05;5.17;;;2.70;;
17308;SDS011;8772;42.804;23.426;2022-08-23T06:50:33;4.90;;;2.33;;
17308;SDS011;8772;42.804;23.426;2022-08-23T06:53:00;3.47;;;2.20;;
17308;SDS011;8772;42.804;23.426;2022-08-23T06:55:27;4.13;;;2.00;;
17308;SDS011;8772;42.804;23.426;2022-08-23T06:57:55;4.23;;;2.17;;
17308;SDS011;8772;42.804;23.426;2022-08-23T07:00:22;4.47;;;2.30;;
17308;SDS011;8772;42.804;23.426;2022-08-23T07:02:49;3.63;;;2.23;;
17308;SDS011;8772;42.804;23.426;2022-08-23T07:05:19;4.87;;;2.17;;
17308;SDS011;8772;42.804;23.426;2022-08-23T07:07:46;9.60;;;2.60;;
17308;SDS011;8772;42.804;23.426;2022-08-23T07:10:13;6.17;;;2.00;;
17308;SDS011;8772;42.804;23.426;2022-08-23T07:12:41;2.90;;;1.93;;
17308;SDS011;8772;42.804;23.426;2022-08-23T07:15:08;3.70;;;1.97;;
17308;SDS011;8772;42.804;23.426;2022-08-23T07:17:36;4.03;;;2.20;;
17308;SDS011;8772;42.804;23.426;2022-08-23T07:20:05;4.33;;;2.00;;
17308;SDS011;8772;42.804;23.426;2022-08-23T07:22:34;5.47;;;2.00;;
17308;SDS011;8772;42.804;23.426;2022-08-23T07:25:01;4.67;;;2.33;;
17308;SDS011;8772;42.804;23.426;2022-08-23T07:27:28;3.13;;;1.70;;
17308;SDS011;8772;42.804;23.426;2022-08-23T07:29:55;3.50;;;2.07;;
17308;SDS011;8772;42.804;23.426;2022-08-23T07:32:22;8.10;;;2.47;;
17308;SDS011;8772;42.804;23.426;2022-08-23T07:34:49;4.53;;;1.80;;
17308;SDS011;8772;42.804;23.426;2022-08-23T07:37:16;3.37;;;1.60;;
17308;SDS011;8772;42.804;23.426;2022-08-23T07:39:45;4.17;;;1.70;;
17308;SDS011;8772;42.804;23.426;2022-08-23T07:42:12;2.37;;;1.50;;
17308;SDS011;8772;42.804;23.426;2022-08-23T07:44:39;4.10;;;2.20;;
17308;SDS011;8772;42.804;23.426;2022-08-23T07:47:06;3.27;;;1.90;;
17308;SDS011;8772;42.804;23.426;2022-08-23T07:49:32;2.67;;;1.70;;
17308;SDS011;8772;42.804;23.426;2022-08-23T07:52:01;3.60;;;2.00;;
17308;SDS011;8772;42.804;23.426;2022-08-23T07:54:28;3.10;;;1.50;;
17308;SDS011;8772;42.804;23.426;2022-08-23T07:56:56;6.50;;;2.03;;
17308;SDS011;8772;42.804;23.426;2022-08-23T07:59:24;5.60;;;3.00;;
17308;SDS011;8772;42.804;23.426;2022-08-23T08:01:51;4.97;;;2.25;;
17308;SDS011;8772;42.804;23.426;2022-08-23T08:04:18;3.67;;;2.08;;
17308;SDS011;8772;42.804;23.426;2022-08-23T08:06:46;3.58;;;1.80;;
17308;SDS011;8772;42.804;23.426;2022-08-23T08:09:16;4.15;;;2.42;;
17308;SDS011;8772;42.804;23.426;2022-08-23T08:11:45;9.82;;;3.10;;
17308;SDS011;8772;42.804;23.426;2022-08-23T08:14:14;6.75;;;2.72;;
17308;SDS011;8772;42.804;23.426;2022-08-23T08:16:43;2.92;;;1.95;;
17308;SDS011;8772;42.804;23.426;2022-08-23T08:19:12;5.85;;;2.83;;
17308;SDS011;8772;42.804;23.426;2022-08-23T08:21:43;4.55;;;2.47;;
17308;SDS011;8772;42.804;23.426;2022-08-23T08:24:12;4.40;;;2.20;;
17308;SDS011;8772;42.804;23.426;2022-08-23T08:26:40;3.72;;;2.17;;
17308;SDS011;8772;42.804;23.426;2022-08-23T08:29:09;16.23;;;3.28;;
17308;SDS011;8772;42.804;23.426;2022-08-23T08:31:39;4.30;;;2.13;;
17308;SDS011;8772;42.804;23.426;2022-08-23T08:34:07;3.78;;;2.05;;
17308;SDS011;8772;42.804;23.426;2022-08-23T08:36:38;9.15;;;2.22;;
17308;SDS011;8772;42.804;23.426;2022-08-23T08:39:08;4.03;;;2.10;;
17308;SDS011;8772;42.804;23.426;2022-08-23T08:41:39;4.47;;;2.28;;
17308;SDS011;8772;42.804;23.426;2022-08-23T08:44:14;3.53;;;2.28;;
17308;SDS011;8772;42.804;23.426;2022-08-23T08:46:52;3.13;;;1.98;;
17308;SDS011;8772;42.804;23.426;2022-08-23T08:49:25;4.00;;;2.20;;
17308;SDS011;8772;42.804;23.426;2022-08-23T08:51:59;4.05;;;2.53;;
17308;SDS011;8772;42.804;23.426;2022-08-23T08:54:32;3.42;;;2.03;;
17308;SDS011;8772;42.804;23.426;2022-08-23T08:56:59;4.68;;;2.40;;
17308;SDS011;8772;42.804;23.426;2022-08-23T08:59:28;3.50;;;1.77;;
17308;SDS011;8772;42.804;23.426;2022-08-23T09:02:03;4.10;;;2.30;;
17308;SDS011;8772;42.804;23.426;2022-08-23T09:04:31;5.03;;;2.70;;
17308;SDS011;8772;42.804;23.426;2022-08-23T09:07:02;5.20;;;2.08;;
17308;SDS011;8772;42.804;23.426;2022-08-23T09:12:53;3.13;;;2.03;;
17308;SDS011;8772;42.804;23.426;2022-08-23T09:15:29;3.13;;;1.88;;
17308;SDS011;8772;42.804;23.426;2022-08-23T09:18:06;3.47;;;2.30;;
17308;SDS011;8772;42.804;23.426;2022-08-23T09:20:35;9.27;;;2.10;;
17308;SDS011;8772;42.804;23.426;2022-08-23T09:23:05;22.05;;;2.60;;
17308;SDS011;8772;42.804;23.426;2022-08-23T09:25:34;3.80;;;2.03;;
17308;SDS011;8772;42.804;23.426;2022-08-23T09:28:01;5.78;;;2.47;;
17308;SDS011;8772;42.804;23.426;2022-08-23T09:30:46;4.78;;;2.40;;
17308;SDS011;8772;42.804;23.426;2022-08-23T09:33:17;5.28;;;2.30;;
17308;SDS011;8772;42.804;23.426;2022-08-23T09:36:01;3.42;;;2.05;;
17308;SDS011;8772;42.804;23.426;2022-08-23T09:38:31;4.70;;;2.15;;
17308;SDS011;8772;42.804;23.426;2022-08-23T09:40:59;3.22;;;2.08;;
17308;SDS011;8772;42.804;23.426;2022-08-23T09:43:27;4.40;;;2.40;;
17308;SDS011;8772;42.804;23.426;2022-08-23T09:45:57;3.58;;;2.40;;
17308;SDS011;8772;42.804;23.426;2022-08-23T09:48:35;4.32;;;2.30;;
17308;SDS011;8772;42.804;23.426;2022-08-23T09:51:06;6.97;;;2.47;;
17308;SDS011;8772;42.804;23.426;2022-08-23T09:53:43;4.57;;;2.25;;
17308;SDS011;8772;42.804;23.426;2022-08-23T09:56:15;3.80;;;2.60;;
17308;SDS011;8772;42.804;23.426;2022-08-23T09:58:47;2.92;;;2.00;;
17308;SDS011;8772;42.804;23.426;2022-08-23T10:01:18;5.40;;;2.55;;
17308;SDS011;8772;42.804;23.426;2022-08-23T10:06:35;6.00;;;2.72;;
17308;SDS011;8772;42.804;23.426;2022-08-23T10:09:04;3.88;;;2.40;;
17308;SDS011;8772;42.804;23.426;2022-08-23T10:11:33;4.55;;;2.25;;
17308;SDS011;8772;42.804;23.426;2022-08-23T10:14:05;3.50;;;2.30;;
17308;SDS011;8772;42.804;23.426;2022-08-23T10:16:34;3.70;;;2.58;;
17308;SDS011;8772;42.804;23.426;2022-08-23T10:19:11;4.03;;;2.45;;
17308;SDS011;8772;42.804;23.426;2022-08-23T10:21:45;3.55;;;2.30;;
17308;SDS011;8772;42.804;23.426;2022-08-23T10:24:26;5.00;;;2.80;;
17308;SDS011;8772;42.804;23.426;2022-08-23T10:27:06;4.50;;;2.88;;
17308;SDS011;8772;42.804;23.426;2022-08-23T10:30:01;3.58;;;2.28;;
17308;SDS011;8772;42.804;23.426;2022-08-23T10:32:34;4.40;;;2.90;;
17308;SDS011;8772;42.804;23.426;2022-08-23T10:35:20;4.55;;;2.50;;
17308;SDS011;8772;42.804;23.426;2022-08-23T10:38:14;5.75;;;2.50;;
17308;SDS011;8772;42.804;23.426;2022-08-23T10:40:59;4.45;;;2.67;;
17308;SDS011;8772;42.804;23.426;2022-08-23T10:43:31;2.95;;;2.25;;
17308;SDS011;8772;42.804;23.426;2022-08-23T10:46:04;27.83;;;2.75;;
17308;SDS011;8772;42.804;23.426;2022-08-23T10:48:34;94.95;;;7.75;;
17308;SDS011;8772;42.804;23.426;2022-08-23T10:51:08;26.77;;;4.95;;
17308;SDS011;8772;42.804;23.426;2022-08-23T10:53:41;25.20;;;5.72;;
17308;SDS011;8772;42.804;23.426;2022-08-23T10:56:12;21.15;;;5.07;;
17308;SDS011;8772;42.804;23.426;2022-08-23T10:58:44;9.93;;;4.65;;
17308;SDS011;8772;42.804;23.426;2022-08-23T11:03:44;6.25;;;4.30;;
17308;SDS011;8772;42.804;23.426;2022-08-23T11:06:26;7.38;;;4.78;;
17308;SDS011;8772;42.804;23.426;2022-08-23T11:09:09;7.38;;;5.32;;
17308;SDS011;8772;42.804;23.426;2022-08-23T11:12:08;9.88;;;5.03;;
17308;SDS011;8772;42.804;23.426;2022-08-23T11:14:40;19.30;;;6.57;;
17308;SDS011;8772;42.804;23.426;2022-08-23T11:17:11;12.75;;;5.78;;
17308;SDS011;8772;42.804;23.426;2022-08-23T11:19:50;7.80;;;4.63;;
17308;SDS011;8772;42.804;23.426;2022-08-23T11:22:21;14.20;;;6.20;;
17308;SDS011;8772;42.804;23.426;2022-08-23T11:24:51;9.32;;;4.68;;
17308;SDS011;8772;42.804;23.426;2022-08-23T11:27:24;7.82;;;4.65;;
17308;SDS011;8772;42.804;23.426;2022-08-23T11:29:53;15.45;;;6.57;;
17308;SDS011;8772;42.804;23.426;2022-08-23T11:32:29;10.32;;;5.32;;
17308;SDS011;8772;42.804;23.426;2022-08-23T11:35:05;7.05;;;4.75;;
17308;SDS011;8772;42.804;23.426;2022-08-23T11:37:49;23.50;;;5.70;;
17308;SDS011;8772;42.804;23.426;2022-08-23T11:43:22;3.28;;;1.77;;
17308;SDS011;8772;42.804;23.426;2022-08-23T11:48:47;1.27;;;0.98;;
17308;SDS011;8772;42.804;23.426;2022-08-23T11:51:21;1.92;;;1.23;;
17308;SDS011;8772;42.804;23.426;2022-08-23T11:54:03;2.40;;;1.27;;
17308;SDS011;8772;42.804;23.426;2022-08-23T11:56:48;3.45;;;1.23;;
17308;SDS011;8772;42.804;23.426;2022-08-23T11:59:28;1.85;;;1.23;;
17308;SDS011;8772;42.804;23.426;2022-08-23T12:05:38;2.08;;;1.23;;
17308;SDS011;8772;42.804;23.426;2022-08-23T12:11:16;3.10;;;2.00;;
17308;SDS011;8772;42.804;23.426;2022-08-23T12:13:55;2.00;;;1.15;;
17308;SDS011;8772;42.804;23.426;2022-08-23T12:16:29;3.10;;;1.50;;
17308;SDS011;8772;42.804;23.426;2022-08-23T12:19:02;3.45;;;1.58;;
17308;SDS011;8772;42.804;23.426;2022-08-23T12:21:40;2.45;;;1.08;;
17308;SDS011;8772;42.804;23.426;2022-08-23T12:24:18;1.20;;;0.60;;
17308;SDS011;8772;42.804;23.426;2022-08-23T12:26:57;0.32;;;0.32;;
17308;SDS011;8772;42.804;23.426;2022-08-23T12:29:33;0.30;;;0.30;;
17308;SDS011;8772;42.804;23.426;2022-08-23T12:32:11;1.30;;;0.75;;
17308;SDS011;8772;42.804;23.426;2022-08-23T12:34:56;0.60;;;0.60;;
17308;SDS011;8772;42.804;23.426;2022-08-23T12:37:39;0.52;;;0.50;;
17308;SDS011;8772;42.804;23.426;2022-08-23T12:40:13;0.55;;;0.40;;
17308;SDS011;8772;42.804;23.426;2022-08-23T12:42:48;0.55;;;0.55;;
17308;SDS011;8772;42.804;23.426;2022-08-23T12:45:18;0.60;;;0.60;;
17308;SDS011;8772;42.804;23.426;2022-08-23T12:47:53;1.02;;;0.60;;
17308;SDS011;8772;42.804;23.426;2022-08-23T12:50:25;3.95;;;1.13;;
17308;SDS011;8772;42.804;23.426;2022-08-23T12:52:54;1.33;;;0.95;;
17308;SDS011;8772;42.804;23.426;2022-08-23T12:55:27;2.03;;;1.02;;
17308;SDS011;8772;42.804;23.426;2022-08-23T12:57:58;0.52;;;0.30;;
17308;SDS011;8772;42.804;23.426;2022-08-23T13:00:27;1.40;;;1.08;;
17308;SDS011;8772;42.804;23.426;2022-08-23T13:02:58;2.92;;;1.15;;
17308;SDS011;8772;42.804;23.426;2022-08-23T13:05:32;0.45;;;0.40;;
17308;SDS011;8772;42.804;23.426;2022-08-23T13:08:05;0.45;;;0.40;;
17308;SDS011;8772;42.804;23.426;2022-08-23T13:10:35;0.80;;;0.55;;
17308;SDS011;8772;42.804;23.426;2022-08-23T13:13:06;0.30;;;0.30;;
17308;SDS011;8772;42.804;23.426;2022-08-23T13:15:39;0.70;;;0.65;;
17308;SDS011;8772;42.804;23.426;2022-08-23T13:18:24;1.30;;;1.02;;
17308;SDS011;8772;42.804;23.426;2022-08-23T13:23:43;0.63;;;0.52;;
17308;SDS011;8772;42.804;23.426;2022-08-23T13:29:08;0.77;;;0.77;;
17308;SDS011;8772;42.804;23.426;2022-08-23T13:31:47;0.38;;;0.38;;
17308;SDS011;8772;42.804;23.426;2022-08-23T13:34:29;0.77;;;0.63;;
17308;SDS011;8772;42.804;23.426;2022-08-23T13:36:57;0.68;;;0.65;;
17308;SDS011;8772;42.804;23.426;2022-08-23T13:39:24;0.43;;;0.43;;
17308;SDS011;8772;42.804;23.426;2022-08-23T13:41:51;0.45;;;0.45;;
17308;SDS011;8772;42.804;23.426;2022-08-23T13:44:21;0.30;;;0.30;;
17308;SDS011;8772;42.804;23.426;2022-08-23T13:46:48;0.60;;;0.50;;
17308;SDS011;8772;42.804;23.426;2022-08-23T13:49:16;0.30;;;0.30;;
17308;SDS011;8772;42.804;23.426;2022-08-23T13:54:32;0.77;;;0.47;;
17308;SDS011;8772;42.804;23.426;2022-08-23T13:57:01;0.20;;;0.20;;
17308;SDS011;8772;42.804;23.426;2022-08-23T13:59:33;2.55;;;1.33;;
17308;SDS011;8772;42.804;23.426;2022-08-23T14:02:04;0.50;;;0.50;;
17308;SDS011;8772;42.804;23.426;2022-08-23T14:04:33;0.40;;;0.40;;
17308;SDS011;8772;42.804;23.426;2022-08-23T14:07:00;0.52;;;0.52;;
17308;SDS011;8772;42.804;23.426;2022-08-23T14:09:27;0.60;;;0.40;;
17308;SDS011;8772;42.804;23.426;2022-08-23T14:11:56;0.38;;;0.38;;
17308;SDS011;8772;42.804;23.426;2022-08-23T14:14:24;0.50;;;0.45;;
17308;SDS011;8772;42.804;23.426;2022-08-23T14:16:56;0.82;;;0.82;;
17308;SDS011;8772;42.804;23.426;2022-08-23T14:19:24;0.30;;;0.30;;
17308;SDS011;8772;42.804;23.426;2022-08-23T14:21:53;1.27;;;0.90;;
17308;SDS011;8772;42.804;23.426;2022-08-23T14:24:20;0.50;;;0.50;;
17308;SDS011;8772;42.804;23.426;2022-08-23T14:26:47;0.55;;;0.55;;
17308;SDS011;8772;42.804;23.426;2022-08-23T14:29:14;0.77;;;0.77;;
17308;SDS011;8772;42.804;23.426;2022-08-23T14:31:41;0.75;;;0.75;;
17308;SDS011;8772;42.804;23.426;2022-08-23T14:34:10;0.52;;;0.52;;
17308;SDS011;8772;42.804;23.426;2022-08-23T14:36:37;0.75;;;0.68;;
17308;SDS011;8772;42.804;23.426;2022-08-23T14:39:04;0.55;;;0.50;;
17308;SDS011;8772;42.804;23.426;2022-08-23T14:41:31;0.38;;;0.38;;
17308;SDS011;8772;42.804;23.426;2022-08-23T14:43:59;0.60;;;0.60;;
17308;SDS011;8772;42.804;23.426;2022-08-23T14:46:27;0.70;;;0.70;;
17308;SDS011;8772;42.804;23.426;2022-08-23T14:48:54;0.52;;;0.52;;
17308;SDS011;8772;42.804;23.426;2022-08-23T14:51:24;0.25;;;0.25;;
17308;SDS011;8772;42.804;23.426;2022-08-23T14:53:52;1.45;;;1.08;;
17308;SDS011;8772;42.804;23.426;2022-08-23T14:56:20;0.88;;;0.88;;
17308;SDS011;8772;42.804;23.426;2022-08-23T14:58:47;1.63;;;0.60;;
17308;SDS011;8772;42.804;23.426;2022-08-23T15:01:15;0.30;;;0.30;;
17308;SDS011;8772;42.804;23.426;2022-08-23T15:03:43;0.52;;;0.52;;
17308;SDS011;8772;42.804;23.426;2022-08-23T15:06:11;0.37;;;0.37;;
17308;SDS011;8772;42.804;23.426;2022-08-23T15:08:40;0.80;;;0.73;;
17308;SDS011;8772;42.804;23.426;2022-08-23T15:11:08;1.37;;;1.03;;
17308;SDS011;8772;42.804;23.426;2022-08-23T15:13:36;0.63;;;0.63;;
17308;SDS011;8772;42.804;23.426;2022-08-23T15:16:04;0.97;;;0.80;;
17308;SDS011;8772;42.804;23.426;2022-08-23T15:18:33;0.53;;;0.50;;
17308;SDS011;8772;42.804;23.426;2022-08-23T15:21:02;1.00;;;0.83;;
17308;SDS011;8772;42.804;23.426;2022-08-23T15:23:29;0.77;;;0.73;;
17308;SDS011;8772;42.804;23.426;2022-08-23T15:25:57;4.17;;;1.40;;
17308;SDS011;8772;42.804;23.426;2022-08-23T15:28:25;2.17;;;1.17;;
17308;SDS011;8772;42.804;23.426;2022-08-23T15:30:52;0.20;;;0.20;;
17308;SDS011;8772;42.804;23.426;2022-08-23T15:33:19;0.97;;;0.70;;
17308;SDS011;8772;42.804;23.426;2022-08-23T15:35:48;2.10;;;1.17;;
17308;SDS011;8772;42.804;23.426;2022-08-23T15:38:17;1.23;;;0.90;;